sensor_id;sensor_type;location;lat;lon;timestamp;P1;durP1;ratioP1;P2;durP2;ratioP2
20910;SDS011;10615;42.702;23.314;2023-04-07T00:00:27;16.70;;;12.32;;
20910;SDS011;10615;42.702;23.314;2023-04-07T00:01:27;17.27;;;11.45;;
20910;SDS011;10615;42.702;23.314;2023-04-07T00:02:28;12.15;;;10.10;;
20910;SDS011;10615;42.702;23.314;2023-04-07T00:03:29;14.80;;;10.70;;
20910;SDS011;10615;42.702;23.314;2023-04-07T00:04:30;14.93;;;10.38;;
20910;SDS011;10615;42.702;23.314;2023-04-07T00:05:31;13.88;;;10.23;;
20910;SDS011;10615;42.702;23.314;2023-04-07T00:06:32;17.63;;;11.35;;
20910;SDS011;10615;42.702;23.314;2023-04-07T00:07:32;14.15;;;10.45;;
20910;SDS011;10615;42.702;23.314;2023-04-07T00:08:33;14.85;;;10.55;;
20910;SDS011;10615;42.702;23.314;2023-04-07T00:09:34;15.07;;;10.73;;
20910;SDS011;10615;42.702;23.314;2023-04-07T00:10:35;17.52;;;10.85;;
20910;SDS011;10615;42.702;23.314;2023-04-07T00:11:36;14.38;;;9.82;;
20910;SDS011;10615;42.702;23.314;2023-04-07T00:12:37;14.65;;;10.23;;
20910;SDS011;10615;42.702;23.314;2023-04-07T00:13:38;17.05;;;10.05;;
20910;SDS011;10615;42.702;23.314;2023-04-07T00:14:38;15.27;;;10.50;;
20910;SDS011;10615;42.702;23.314;2023-04-07T00:15:39;15.18;;;10.27;;
20910;SDS011;10615;42.702;23.314;2023-04-07T00:16:40;14.75;;;10.52;;
20910;SDS011;10615;42.702;23.314;2023-04-07T00:17:40;13.93;;;9.93;;
20910;SDS011;10615;42.702;23.314;2023-04-07T00:18:41;12.63;;;9.80;;
20910;SDS011;10615;42.702;23.314;2023-04-07T00:19:42;12.90;;;9.85;;
20910;SDS011;10615;42.702;23.314;2023-04-07T00:20:43;11.75;;;9.75;;
20910;SDS011;10615;42.702;23.314;2023-04-07T00:21:43;14.20;;;10.35;;
20910;SDS011;10615;42.702;23.314;2023-04-07T00:22:44;13.60;;;10.88;;
20910;SDS011;10615;42.702;23.314;2023-04-07T00:23:45;13.18;;;10.30;;
20910;SDS011;10615;42.702;23.314;2023-04-07T00:24:46;15.13;;;9.75;;
20910;SDS011;10615;42.702;23.314;2023-04-07T00:25:47;15.23;;;9.90;;
20910;SDS011;10615;42.702;23.314;2023-04-07T00:26:48;12.55;;;9.60;;
20910;SDS011;10615;42.702;23.314;2023-04-07T00:27:49;15.10;;;10.15;;
20910;SDS011;10615;42.702;23.314;2023-04-07T00:28:50;14.65;;;10.43;;
20910;SDS011;10615;42.702;23.314;2023-04-07T00:29:51;14.55;;;10.35;;
20910;SDS011;10615;42.702;23.314;2023-04-07T00:30:54;14.25;;;9.73;;
20910;SDS011;10615;42.702;23.314;2023-04-07T00:31:54;14.07;;;9.60;;
20910;SDS011;10615;42.702;23.314;2023-04-07T00:32:55;15.27;;;9.25;;
20910;SDS011;10615;42.702;23.314;2023-04-07T00:33:56;11.95;;;9.27;;
20910;SDS011;10615;42.702;23.314;2023-04-07T00:34:56;13.98;;;9.95;;
20910;SDS011;10615;42.702;23.314;2023-04-07T00:35:57;16.05;;;9.32;;
20910;SDS011;10615;42.702;23.314;2023-04-07T00:36:58;11.93;;;9.73;;
20910;SDS011;10615;42.702;23.314;2023-04-07T00:37:58;15.75;;;10.35;;
20910;SDS011;10615;42.702;23.314;2023-04-07T00:38:59;15.35;;;9.90;;
20910;SDS011;10615;42.702;23.314;2023-04-07T00:40:00;14.93;;;10.02;;
20910;SDS011;10615;42.702;23.314;2023-04-07T00:41:00;15.70;;;11.32;;
20910;SDS011;10615;42.702;23.314;2023-04-07T00:42:02;15.77;;;11.60;;
20910;SDS011;10615;42.702;23.314;2023-04-07T00:43:04;13.85;;;11.13;;
20910;SDS011;10615;42.702;23.314;2023-04-07T00:44:05;15.98;;;12.02;;
20910;SDS011;10615;42.702;23.314;2023-04-07T00:45:06;17.50;;;12.73;;
20910;SDS011;10615;42.702;23.314;2023-04-07T00:46:07;18.98;;;14.68;;
20910;SDS011;10615;42.702;23.314;2023-04-07T00:47:08;20.27;;;15.10;;
20910;SDS011;10615;42.702;23.314;2023-04-07T00:48:08;21.33;;;16.23;;
20910;SDS011;10615;42.702;23.314;2023-04-07T00:49:09;24.45;;;18.13;;
20910;SDS011;10615;42.702;23.314;2023-04-07T00:50:12;26.40;;;18.02;;
20910;SDS011;10615;42.702;23.314;2023-04-07T00:51:12;25.90;;;18.52;;
20910;SDS011;10615;42.702;23.314;2023-04-07T00:52:14;22.17;;;17.65;;
20910;SDS011;10615;42.702;23.314;2023-04-07T00:53:15;24.35;;;18.02;;
20910;SDS011;10615;42.702;23.314;2023-04-07T00:54:17;23.58;;;17.80;;
20910;SDS011;10615;42.702;23.314;2023-04-07T00:55:18;26.73;;;18.45;;
20910;SDS011;10615;42.702;23.314;2023-04-07T00:56:18;24.73;;;18.48;;
20910;SDS011;10615;42.702;23.314;2023-04-07T00:57:19;24.73;;;18.17;;
20910;SDS011;10615;42.702;23.314;2023-04-07T00:58:21;27.20;;;18.48;;
20910;SDS011;10615;42.702;23.314;2023-04-07T00:59:22;25.00;;;18.25;;
20910;SDS011;10615;42.702;23.314;2023-04-07T01:00:23;27.35;;;19.45;;
20910;SDS011;10615;42.702;23.314;2023-04-07T01:01:29;27.40;;;19.40;;
20910;SDS011;10615;42.702;23.314;2023-04-07T01:04:14;23.90;;;18.63;;
20910;SDS011;10615;42.702;23.314;2023-04-07T01:06:17;27.30;;;18.88;;
20910;SDS011;10615;42.702;23.314;2023-04-07T01:07:33;26.35;;;19.17;;
20910;SDS011;10615;42.702;23.314;2023-04-07T01:08:46;26.30;;;18.75;;
20910;SDS011;10615;42.702;23.314;2023-04-07T01:10:05;24.40;;;18.98;;
20910;SDS011;10615;42.702;23.314;2023-04-07T01:11:29;26.27;;;18.55;;
20910;SDS011;10615;42.702;23.314;2023-04-07T01:14:04;27.38;;;18.13;;
20910;SDS011;10615;42.702;23.314;2023-04-07T01:15:07;31.33;;;18.85;;
20910;SDS011;10615;42.702;23.314;2023-04-07T01:16:11;25.25;;;18.45;;
20910;SDS011;10615;42.702;23.314;2023-04-07T01:17:15;25.65;;;18.60;;
20910;SDS011;10615;42.702;23.314;2023-04-07T01:18:20;26.80;;;18.45;;
20910;SDS011;10615;42.702;23.314;2023-04-07T01:19:37;28.30;;;18.70;;
20910;SDS011;10615;42.702;23.314;2023-04-07T01:20:42;26.80;;;18.88;;
20910;SDS011;10615;42.702;23.314;2023-04-07T01:21:44;24.60;;;18.98;;
20910;SDS011;10615;42.702;23.314;2023-04-07T01:22:54;29.63;;;19.98;;
20910;SDS011;10615;42.702;23.314;2023-04-07T01:26:32;26.00;;;18.23;;
20910;SDS011;10615;42.702;23.314;2023-04-07T01:30:22;24.25;;;18.20;;
20910;SDS011;10615;42.702;23.314;2023-04-07T01:31:26;22.65;;;17.30;;
20910;SDS011;10615;42.702;23.314;2023-04-07T01:32:29;25.08;;;17.52;;
20910;SDS011;10615;42.702;23.314;2023-04-07T01:33:30;24.92;;;18.25;;
20910;SDS011;10615;42.702;23.314;2023-04-07T01:34:32;27.48;;;18.95;;
20910;SDS011;10615;42.702;23.314;2023-04-07T01:35:34;25.70;;;18.85;;
20910;SDS011;10615;42.702;23.314;2023-04-07T01:36:36;21.88;;;16.55;;
20910;SDS011;10615;42.702;23.314;2023-04-07T01:37:37;27.27;;;18.85;;
20910;SDS011;10615;42.702;23.314;2023-04-07T01:38:39;23.88;;;17.58;;
20910;SDS011;10615;42.702;23.314;2023-04-07T01:39:41;28.80;;;18.70;;
20910;SDS011;10615;42.702;23.314;2023-04-07T01:40:41;27.23;;;19.02;;
20910;SDS011;10615;42.702;23.314;2023-04-07T01:41:43;27.17;;;19.48;;
20910;SDS011;10615;42.702;23.314;2023-04-07T01:42:44;23.67;;;17.13;;
20910;SDS011;10615;42.702;23.314;2023-04-07T01:43:47;23.00;;;16.75;;
20910;SDS011;10615;42.702;23.314;2023-04-07T01:44:48;23.17;;;17.27;;
20910;SDS011;10615;42.702;23.314;2023-04-07T01:45:51;21.52;;;16.17;;
20910;SDS011;10615;42.702;23.314;2023-04-07T01:46:53;22.55;;;16.70;;
20910;SDS011;10615;42.702;23.314;2023-04-07T01:47:55;24.67;;;16.85;;
20910;SDS011;10615;42.702;23.314;2023-04-07T01:48:57;21.20;;;16.38;;
20910;SDS011;10615;42.702;23.314;2023-04-07T01:49:58;22.50;;;15.95;;
20910;SDS011;10615;42.702;23.314;2023-04-07T01:51:03;20.77;;;15.73;;
20910;SDS011;10615;42.702;23.314;2023-04-07T01:52:04;21.63;;;15.90;;
20910;SDS011;10615;42.702;23.314;2023-04-07T01:53:06;22.58;;;16.40;;
20910;SDS011;10615;42.702;23.314;2023-04-07T01:54:07;23.08;;;16.38;;
20910;SDS011;10615;42.702;23.314;2023-04-07T01:55:09;25.50;;;15.90;;
20910;SDS011;10615;42.702;23.314;2023-04-07T01:56:09;24.25;;;16.05;;
20910;SDS011;10615;42.702;23.314;2023-04-07T01:57:10;19.45;;;15.55;;
20910;SDS011;10615;42.702;23.314;2023-04-07T01:58:11;23.63;;;17.05;;
20910;SDS011;10615;42.702;23.314;2023-04-07T01:59:12;22.98;;;17.00;;
20910;SDS011;10615;42.702;23.314;2023-04-07T02:00:12;24.00;;;17.05;;
20910;SDS011;10615;42.702;23.314;2023-04-07T02:01:13;23.50;;;16.33;;
20910;SDS011;10615;42.702;23.314;2023-04-07T02:02:14;20.52;;;15.77;;
20910;SDS011;10615;42.702;23.314;2023-04-07T02:03:19;20.20;;;15.07;;
20910;SDS011;10615;42.702;23.314;2023-04-07T02:04:29;22.27;;;16.52;;
20910;SDS011;10615;42.702;23.314;2023-04-07T02:05:31;23.65;;;17.15;;
20910;SDS011;10615;42.702;23.314;2023-04-07T02:06:37;23.38;;;16.30;;
20910;SDS011;10615;42.702;23.314;2023-04-07T02:07:54;22.10;;;16.77;;
20910;SDS011;10615;42.702;23.314;2023-04-07T02:09:01;21.15;;;17.33;;
20910;SDS011;10615;42.702;23.314;2023-04-07T02:10:06;22.60;;;17.67;;
20910;SDS011;10615;42.702;23.314;2023-04-07T02:11:11;25.00;;;17.70;;
20910;SDS011;10615;42.702;23.314;2023-04-07T02:12:13;23.75;;;17.73;;
20910;SDS011;10615;42.702;23.314;2023-04-07T02:13:17;22.90;;;17.55;;
20910;SDS011;10615;42.702;23.314;2023-04-07T02:14:19;23.70;;;17.35;;
20910;SDS011;10615;42.702;23.314;2023-04-07T02:15:21;23.33;;;17.13;;
20910;SDS011;10615;42.702;23.314;2023-04-07T02:16:23;23.83;;;18.05;;
20910;SDS011;10615;42.702;23.314;2023-04-07T02:17:26;25.30;;;19.05;;
20910;SDS011;10615;42.702;23.314;2023-04-07T02:18:29;24.50;;;17.80;;
20910;SDS011;10615;42.702;23.314;2023-04-07T02:19:31;25.85;;;17.98;;
20910;SDS011;10615;42.702;23.314;2023-04-07T02:20:34;26.75;;;18.20;;
20910;SDS011;10615;42.702;23.314;2023-04-07T02:21:37;24.17;;;17.75;;
20910;SDS011;10615;42.702;23.314;2023-04-07T02:22:39;21.48;;;16.58;;
20910;SDS011;10615;42.702;23.314;2023-04-07T02:23:43;23.45;;;18.27;;
20910;SDS011;10615;42.702;23.314;2023-04-07T02:24:45;23.15;;;17.30;;
20910;SDS011;10615;42.702;23.314;2023-04-07T02:25:46;26.15;;;17.45;;
20910;SDS011;10615;42.702;23.314;2023-04-07T02:26:47;26.33;;;18.10;;
20910;SDS011;10615;42.702;23.314;2023-04-07T02:27:47;24.23;;;18.17;;
20910;SDS011;10615;42.702;23.314;2023-04-07T02:28:48;27.38;;;19.20;;
20910;SDS011;10615;42.702;23.314;2023-04-07T02:29:49;25.73;;;17.35;;
20910;SDS011;10615;42.702;23.314;2023-04-07T02:30:49;24.67;;;16.75;;
20910;SDS011;10615;42.702;23.314;2023-04-07T02:31:50;24.40;;;17.33;;
20910;SDS011;10615;42.702;23.314;2023-04-07T02:32:51;22.95;;;16.25;;
20910;SDS011;10615;42.702;23.314;2023-04-07T02:33:52;22.80;;;16.63;;
20910;SDS011;10615;42.702;23.314;2023-04-07T02:34:53;25.80;;;17.67;;
20910;SDS011;10615;42.702;23.314;2023-04-07T02:35:53;28.10;;;17.02;;
20910;SDS011;10615;42.702;23.314;2023-04-07T02:36:54;23.98;;;16.83;;
20910;SDS011;10615;42.702;23.314;2023-04-07T02:37:55;22.38;;;16.77;;
20910;SDS011;10615;42.702;23.314;2023-04-07T02:38:57;20.85;;;15.80;;
20910;SDS011;10615;42.702;23.314;2023-04-07T02:39:58;23.98;;;17.08;;
20910;SDS011;10615;42.702;23.314;2023-04-07T02:40:58;21.90;;;16.45;;
20910;SDS011;10615;42.702;23.314;2023-04-07T02:41:59;25.27;;;16.20;;
20910;SDS011;10615;42.702;23.314;2023-04-07T02:43:00;23.42;;;16.75;;
20910;SDS011;10615;42.702;23.314;2023-04-07T02:44:00;23.27;;;16.17;;
20910;SDS011;10615;42.702;23.314;2023-04-07T02:45:01;21.33;;;15.50;;
20910;SDS011;10615;42.702;23.314;2023-04-07T02:46:05;21.23;;;15.82;;
20910;SDS011;10615;42.702;23.314;2023-04-07T02:47:06;21.40;;;16.02;;
20910;SDS011;10615;42.702;23.314;2023-04-07T02:48:07;21.45;;;16.38;;
20910;SDS011;10615;42.702;23.314;2023-04-07T02:49:07;22.90;;;16.27;;
20910;SDS011;10615;42.702;23.314;2023-04-07T02:50:08;23.98;;;16.75;;
20910;SDS011;10615;42.702;23.314;2023-04-07T02:51:09;23.90;;;16.55;;
20910;SDS011;10615;42.702;23.314;2023-04-07T02:52:10;21.88;;;15.93;;
20910;SDS011;10615;42.702;23.314;2023-04-07T02:53:11;22.30;;;16.50;;
20910;SDS011;10615;42.702;23.314;2023-04-07T02:54:12;23.10;;;16.45;;
20910;SDS011;10615;42.702;23.314;2023-04-07T02:55:12;28.48;;;16.77;;
20910;SDS011;10615;42.702;23.314;2023-04-07T02:56:14;24.65;;;15.05;;
20910;SDS011;10615;42.702;23.314;2023-04-07T02:57:15;19.58;;;14.90;;
20910;SDS011;10615;42.702;23.314;2023-04-07T02:58:16;20.35;;;15.32;;
20910;SDS011;10615;42.702;23.314;2023-04-07T02:59:17;23.17;;;15.95;;
20910;SDS011;10615;42.702;23.314;2023-04-07T03:00:17;24.08;;;16.20;;
20910;SDS011;10615;42.702;23.314;2023-04-07T03:01:18;26.75;;;16.52;;
20910;SDS011;10615;42.702;23.314;2023-04-07T03:02:19;22.08;;;16.52;;
20910;SDS011;10615;42.702;23.314;2023-04-07T03:03:20;25.83;;;16.45;;
20910;SDS011;10615;42.702;23.314;2023-04-07T03:04:20;27.05;;;17.10;;
20910;SDS011;10615;42.702;23.314;2023-04-07T03:05:21;24.95;;;16.50;;
20910;SDS011;10615;42.702;23.314;2023-04-07T03:06:22;22.92;;;15.40;;
20910;SDS011;10615;42.702;23.314;2023-04-07T03:07:22;24.48;;;16.70;;
20910;SDS011;10615;42.702;23.314;2023-04-07T03:08:23;21.35;;;16.25;;
20910;SDS011;10615;42.702;23.314;2023-04-07T03:09:24;21.65;;;16.55;;
20910;SDS011;10615;42.702;23.314;2023-04-07T03:10:24;25.90;;;17.13;;
20910;SDS011;10615;42.702;23.314;2023-04-07T03:11:25;26.70;;;17.15;;
20910;SDS011;10615;42.702;23.314;2023-04-07T03:12:26;23.45;;;17.08;;
20910;SDS011;10615;42.702;23.314;2023-04-07T03:13:26;27.48;;;18.70;;
20910;SDS011;10615;42.702;23.314;2023-04-07T03:14:28;24.02;;;17.92;;
20910;SDS011;10615;42.702;23.314;2023-04-07T03:15:29;23.90;;;17.48;;
20910;SDS011;10615;42.702;23.314;2023-04-07T03:16:30;24.30;;;17.70;;
20910;SDS011;10615;42.702;23.314;2023-04-07T03:17:30;27.38;;;19.58;;
20910;SDS011;10615;42.702;23.314;2023-04-07T03:18:32;26.33;;;19.75;;
20910;SDS011;10615;42.702;23.314;2023-04-07T03:19:33;27.10;;;18.48;;
20910;SDS011;10615;42.702;23.314;2023-04-07T03:20:33;29.23;;;20.77;;
20910;SDS011;10615;42.702;23.314;2023-04-07T03:21:35;32.63;;;20.83;;
20910;SDS011;10615;42.702;23.314;2023-04-07T03:22:37;31.38;;;21.02;;
20910;SDS011;10615;42.702;23.314;2023-04-07T03:23:38;29.63;;;20.48;;
20910;SDS011;10615;42.702;23.314;2023-04-07T03:24:38;26.50;;;18.88;;
20910;SDS011;10615;42.702;23.314;2023-04-07T03:25:40;28.02;;;19.05;;
20910;SDS011;10615;42.702;23.314;2023-04-07T03:26:40;25.35;;;18.60;;
20910;SDS011;10615;42.702;23.314;2023-04-07T03:27:41;27.13;;;17.70;;
20910;SDS011;10615;42.702;23.314;2023-04-07T03:28:42;26.00;;;17.65;;
20910;SDS011;10615;42.702;23.314;2023-04-07T03:29:42;28.40;;;17.98;;
20910;SDS011;10615;42.702;23.314;2023-04-07T03:30:43;24.77;;;17.75;;
20910;SDS011;10615;42.702;23.314;2023-04-07T03:31:44;26.85;;;19.83;;
20910;SDS011;10615;42.702;23.314;2023-04-07T03:32:44;21.23;;;16.33;;
20910;SDS011;10615;42.702;23.314;2023-04-07T03:33:45;21.95;;;14.80;;
20910;SDS011;10615;42.702;23.314;2023-04-07T03:34:45;18.98;;;13.55;;
20910;SDS011;10615;42.702;23.314;2023-04-07T03:35:46;17.23;;;11.40;;
20910;SDS011;10615;42.702;23.314;2023-04-07T03:36:47;12.75;;;10.27;;
20910;SDS011;10615;42.702;23.314;2023-04-07T03:37:47;13.20;;;9.88;;
20910;SDS011;10615;42.702;23.314;2023-04-07T03:38:48;15.52;;;9.52;;
20910;SDS011;10615;42.702;23.314;2023-04-07T03:39:49;12.60;;;8.68;;
20910;SDS011;10615;42.702;23.314;2023-04-07T03:40:49;13.38;;;8.50;;
20910;SDS011;10615;42.702;23.314;2023-04-07T03:41:50;12.73;;;8.75;;
20910;SDS011;10615;42.702;23.314;2023-04-07T03:42:51;11.00;;;7.78;;
20910;SDS011;10615;42.702;23.314;2023-04-07T03:43:51;14.80;;;8.18;;
20910;SDS011;10615;42.702;23.314;2023-04-07T03:44:52;12.07;;;8.35;;
20910;SDS011;10615;42.702;23.314;2023-04-07T03:45:53;13.32;;;8.90;;
20910;SDS011;10615;42.702;23.314;2023-04-07T03:46:53;14.45;;;8.90;;
20910;SDS011;10615;42.702;23.314;2023-04-07T03:47:54;14.73;;;10.05;;
20910;SDS011;10615;42.702;23.314;2023-04-07T03:48:55;17.90;;;11.85;;
20910;SDS011;10615;42.702;23.314;2023-04-07T03:49:55;22.48;;;15.50;;
20910;SDS011;10615;42.702;23.314;2023-04-07T03:50:58;21.25;;;15.75;;
20910;SDS011;10615;42.702;23.314;2023-04-07T03:51:58;23.02;;;15.93;;
20910;SDS011;10615;42.702;23.314;2023-04-07T03:52:59;27.08;;;17.88;;
20910;SDS011;10615;42.702;23.314;2023-04-07T03:54:00;23.38;;;16.83;;
20910;SDS011;10615;42.702;23.314;2023-04-07T03:55:00;23.05;;;17.92;;
20910;SDS011;10615;42.702;23.314;2023-04-07T03:56:01;23.02;;;18.08;;
20910;SDS011;10615;42.702;23.314;2023-04-07T03:57:02;25.73;;;17.00;;
20910;SDS011;10615;42.702;23.314;2023-04-07T03:58:02;29.83;;;19.30;;
20910;SDS011;10615;42.702;23.314;2023-04-07T03:59:03;27.85;;;18.42;;
20910;SDS011;10615;42.702;23.314;2023-04-07T04:00:04;27.95;;;19.63;;
20910;SDS011;10615;42.702;23.314;2023-04-07T04:01:05;29.80;;;19.67;;
20910;SDS011;10615;42.702;23.314;2023-04-07T04:02:06;29.55;;;20.15;;
20910;SDS011;10615;42.702;23.314;2023-04-07T04:03:07;28.70;;;20.08;;
20910;SDS011;10615;42.702;23.314;2023-04-07T04:04:08;31.80;;;20.83;;
20910;SDS011;10615;42.702;23.314;2023-04-07T04:05:09;29.30;;;20.25;;
20910;SDS011;10615;42.702;23.314;2023-04-07T04:06:10;29.48;;;21.15;;
20910;SDS011;10615;42.702;23.314;2023-04-07T04:07:10;32.15;;;20.90;;
20910;SDS011;10615;42.702;23.314;2023-04-07T04:08:11;32.28;;;21.35;;
20910;SDS011;10615;42.702;23.314;2023-04-07T04:09:12;32.00;;;21.40;;
20910;SDS011;10615;42.702;23.314;2023-04-07T04:10:13;33.83;;;22.17;;
20910;SDS011;10615;42.702;23.314;2023-04-07T04:11:15;31.08;;;21.83;;
20910;SDS011;10615;42.702;23.314;2023-04-07T04:12:15;34.88;;;22.50;;
20910;SDS011;10615;42.702;23.314;2023-04-07T04:13:16;33.03;;;22.77;;
20910;SDS011;10615;42.702;23.314;2023-04-07T04:14:17;41.05;;;24.80;;
20910;SDS011;10615;42.702;23.314;2023-04-07T04:15:17;37.15;;;24.48;;
20910;SDS011;10615;42.702;23.314;2023-04-07T04:16:18;41.90;;;24.13;;
20910;SDS011;10615;42.702;23.314;2023-04-07T04:17:18;37.80;;;25.15;;
20910;SDS011;10615;42.702;23.314;2023-04-07T04:18:19;36.35;;;24.35;;
20910;SDS011;10615;42.702;23.314;2023-04-07T04:19:20;37.47;;;24.77;;
20910;SDS011;10615;42.702;23.314;2023-04-07T04:20:20;34.75;;;23.55;;
20910;SDS011;10615;42.702;23.314;2023-04-07T04:21:21;37.08;;;24.65;;
20910;SDS011;10615;42.702;23.314;2023-04-07T04:22:21;33.60;;;23.45;;
20910;SDS011;10615;42.702;23.314;2023-04-07T04:23:22;30.42;;;21.30;;
20910;SDS011;10615;42.702;23.314;2023-04-07T04:24:23;32.78;;;22.33;;
20910;SDS011;10615;42.702;23.314;2023-04-07T04:25:23;37.65;;;22.67;;
20910;SDS011;10615;42.702;23.314;2023-04-07T04:26:24;33.53;;;24.05;;
20910;SDS011;10615;42.702;23.314;2023-04-07T04:27:25;34.80;;;23.08;;
20910;SDS011;10615;42.702;23.314;2023-04-07T04:28:26;32.15;;;22.75;;
20910;SDS011;10615;42.702;23.314;2023-04-07T04:29:27;34.70;;;22.63;;
20910;SDS011;10615;42.702;23.314;2023-04-07T04:30:27;36.75;;;22.83;;
20910;SDS011;10615;42.702;23.314;2023-04-07T04:31:28;36.55;;;23.50;;
20910;SDS011;10615;42.702;23.314;2023-04-07T04:32:29;35.58;;;24.98;;
20910;SDS011;10615;42.702;23.314;2023-04-07T04:33:29;35.50;;;24.15;;
20910;SDS011;10615;42.702;23.314;2023-04-07T04:34:30;36.08;;;24.52;;
20910;SDS011;10615;42.702;23.314;2023-04-07T04:35:31;32.05;;;22.90;;
20910;SDS011;10615;42.702;23.314;2023-04-07T04:36:31;31.70;;;22.38;;
20910;SDS011;10615;42.702;23.314;2023-04-07T04:37:33;35.97;;;23.23;;
20910;SDS011;10615;42.702;23.314;2023-04-07T04:38:33;33.35;;;23.13;;
20910;SDS011;10615;42.702;23.314;2023-04-07T04:39:34;33.70;;;21.67;;
20910;SDS011;10615;42.702;23.314;2023-04-07T04:40:35;31.42;;;23.17;;
20910;SDS011;10615;42.702;23.314;2023-04-07T04:41:36;32.50;;;22.35;;
20910;SDS011;10615;42.702;23.314;2023-04-07T04:42:36;33.08;;;22.80;;
20910;SDS011;10615;42.702;23.314;2023-04-07T04:43:37;33.20;;;23.33;;
20910;SDS011;10615;42.702;23.314;2023-04-07T04:44:38;40.03;;;23.58;;
20910;SDS011;10615;42.702;23.314;2023-04-07T04:45:38;33.70;;;23.58;;
20910;SDS011;10615;42.702;23.314;2023-04-07T04:46:39;34.15;;;22.63;;
20910;SDS011;10615;42.702;23.314;2023-04-07T04:47:40;29.17;;;22.52;;
20910;SDS011;10615;42.702;23.314;2023-04-07T04:48:42;39.72;;;22.83;;
20910;SDS011;10615;42.702;23.314;2023-04-07T04:49:43;33.72;;;23.02;;
20910;SDS011;10615;42.702;23.314;2023-04-07T04:50:44;38.35;;;23.55;;
20910;SDS011;10615;42.702;23.314;2023-04-07T04:51:45;34.83;;;24.00;;
20910;SDS011;10615;42.702;23.314;2023-04-07T04:52:45;34.45;;;23.65;;
20910;SDS011;10615;42.702;23.314;2023-04-07T04:53:46;38.10;;;24.08;;
20910;SDS011;10615;42.702;23.314;2023-04-07T04:54:47;33.08;;;23.48;;
20910;SDS011;10615;42.702;23.314;2023-04-07T04:55:47;38.50;;;24.70;;
20910;SDS011;10615;42.702;23.314;2023-04-07T04:56:51;35.45;;;23.50;;
20910;SDS011;10615;42.702;23.314;2023-04-07T04:57:51;37.17;;;24.77;;
20910;SDS011;10615;42.702;23.314;2023-04-07T04:58:52;39.22;;;26.08;;
20910;SDS011;10615;42.702;23.314;2023-04-07T04:59:52;38.13;;;25.45;;
20910;SDS011;10615;42.702;23.314;2023-04-07T05:00:53;38.38;;;25.67;;
20910;SDS011;10615;42.702;23.314;2023-04-07T05:01:58;37.30;;;25.27;;
20910;SDS011;10615;42.702;23.314;2023-04-07T05:02:59;36.40;;;25.30;;
20910;SDS011;10615;42.702;23.314;2023-04-07T05:04:00;37.60;;;24.65;;
20910;SDS011;10615;42.702;23.314;2023-04-07T05:05:00;38.25;;;24.58;;
20910;SDS011;10615;42.702;23.314;2023-04-07T05:06:01;41.38;;;24.02;;
20910;SDS011;10615;42.702;23.314;2023-04-07T05:07:02;40.67;;;24.40;;
20910;SDS011;10615;42.702;23.314;2023-04-07T05:08:03;37.55;;;23.67;;
20910;SDS011;10615;42.702;23.314;2023-04-07T05:09:04;34.70;;;23.25;;
20910;SDS011;10615;42.702;23.314;2023-04-07T05:10:06;38.85;;;25.55;;
20910;SDS011;10615;42.702;23.314;2023-04-07T05:11:07;37.85;;;25.33;;
20910;SDS011;10615;42.702;23.314;2023-04-07T05:12:08;40.33;;;25.35;;
20910;SDS011;10615;42.702;23.314;2023-04-07T05:13:08;39.13;;;24.95;;
20910;SDS011;10615;42.702;23.314;2023-04-07T05:14:09;44.03;;;26.38;;
20910;SDS011;10615;42.702;23.314;2023-04-07T05:15:10;37.92;;;24.17;;
20910;SDS011;10615;42.702;23.314;2023-04-07T05:16:11;37.15;;;25.10;;
20910;SDS011;10615;42.702;23.314;2023-04-07T05:17:11;38.67;;;24.30;;
20910;SDS011;10615;42.702;23.314;2023-04-07T05:18:12;32.17;;;21.38;;
20910;SDS011;10615;42.702;23.314;2023-04-07T05:19:13;41.67;;;22.23;;
20910;SDS011;10615;42.702;23.314;2023-04-07T05:20:14;34.58;;;21.38;;
20910;SDS011;10615;42.702;23.314;2023-04-07T05:21:16;34.83;;;20.92;;
20910;SDS011;10615;42.702;23.314;2023-04-07T05:22:19;33.13;;;19.17;;
20910;SDS011;10615;42.702;23.314;2023-04-07T05:23:20;25.98;;;19.08;;
20910;SDS011;10615;42.702;23.314;2023-04-07T05:24:21;35.83;;;21.88;;
20910;SDS011;10615;42.702;23.314;2023-04-07T05:25:21;35.47;;;22.42;;
20910;SDS011;10615;42.702;23.314;2023-04-07T05:26:22;29.67;;;21.17;;
20910;SDS011;10615;42.702;23.314;2023-04-07T05:27:23;27.77;;;19.83;;
20910;SDS011;10615;42.702;23.314;2023-04-07T05:28:24;30.02;;;18.42;;
20910;SDS011;10615;42.702;23.314;2023-04-07T05:29:25;28.95;;;18.50;;
20910;SDS011;10615;42.702;23.314;2023-04-07T05:30:25;29.92;;;20.13;;
20910;SDS011;10615;42.702;23.314;2023-04-07T05:31:26;31.77;;;20.08;;
20910;SDS011;10615;42.702;23.314;2023-04-07T05:32:27;32.47;;;20.65;;
20910;SDS011;10615;42.702;23.314;2023-04-07T05:33:27;35.78;;;25.15;;
20910;SDS011;10615;42.702;23.314;2023-04-07T05:34:28;30.83;;;21.67;;
20910;SDS011;10615;42.702;23.314;2023-04-07T05:35:29;30.73;;;20.90;;
20910;SDS011;10615;42.702;23.314;2023-04-07T05:36:30;25.60;;;17.33;;
20910;SDS011;10615;42.702;23.314;2023-04-07T05:37:31;26.70;;;18.90;;
20910;SDS011;10615;42.702;23.314;2023-04-07T05:38:31;29.27;;;19.50;;
20910;SDS011;10615;42.702;23.314;2023-04-07T05:39:32;25.17;;;18.33;;
20910;SDS011;10615;42.702;23.314;2023-04-07T05:40:33;26.48;;;19.90;;
20910;SDS011;10615;42.702;23.314;2023-04-07T05:41:34;31.48;;;19.63;;
20910;SDS011;10615;42.702;23.314;2023-04-07T05:42:35;27.50;;;19.48;;
20910;SDS011;10615;42.702;23.314;2023-04-07T05:43:36;27.98;;;18.00;;
20910;SDS011;10615;42.702;23.314;2023-04-07T05:44:36;27.58;;;18.40;;
20910;SDS011;10615;42.702;23.314;2023-04-07T05:45:37;23.70;;;16.75;;
20910;SDS011;10615;42.702;23.314;2023-04-07T05:46:38;31.02;;;17.25;;
20910;SDS011;10615;42.702;23.314;2023-04-07T05:47:39;22.08;;;15.40;;
20910;SDS011;10615;42.702;23.314;2023-04-07T05:48:39;24.45;;;17.13;;
20910;SDS011;10615;42.702;23.314;2023-04-07T05:49:41;24.27;;;15.80;;
20910;SDS011;10615;42.702;23.314;2023-04-07T05:50:45;26.38;;;16.33;;
20910;SDS011;10615;42.702;23.314;2023-04-07T05:51:45;22.98;;;16.77;;
20910;SDS011;10615;42.702;23.314;2023-04-07T05:52:46;23.52;;;17.00;;
20910;SDS011;10615;42.702;23.314;2023-04-07T05:53:47;24.95;;;17.77;;
20910;SDS011;10615;42.702;23.314;2023-04-07T05:54:48;31.00;;;18.05;;
20910;SDS011;10615;42.702;23.314;2023-04-07T05:55:48;31.00;;;20.23;;
20910;SDS011;10615;42.702;23.314;2023-04-07T05:56:49;29.23;;;19.23;;
20910;SDS011;10615;42.702;23.314;2023-04-07T05:57:50;29.23;;;20.33;;
20910;SDS011;10615;42.702;23.314;2023-04-07T05:58:51;24.95;;;17.75;;
20910;SDS011;10615;42.702;23.314;2023-04-07T05:59:52;26.55;;;15.80;;
20910;SDS011;10615;42.702;23.314;2023-04-07T06:00:53;23.77;;;17.92;;
20910;SDS011;10615;42.702;23.314;2023-04-07T06:01:53;22.67;;;15.65;;
20910;SDS011;10615;42.702;23.314;2023-04-07T06:02:54;22.27;;;15.65;;
20910;SDS011;10615;42.702;23.314;2023-04-07T06:03:55;21.75;;;16.00;;
20910;SDS011;10615;42.702;23.314;2023-04-07T06:04:57;25.92;;;17.30;;